createdAt,value
2018-07-17T00:01:26.287Z,6.87
2018-07-17T00:03:55.569Z,7.10
2018-07-17T00:06:25.385Z,6.83
2018-07-17T00:08:54.601Z,7.43
2018-07-17T00:11:23.797Z,7.40
2018-07-17T00:13:53.182Z,7.67
2018-07-17T00:16:22.400Z,7.47
2018-07-17T00:18:51.532Z,7.73
2018-07-17T00:21:21.484Z,8.43
2018-07-17T00:23:50.696Z,8.20
2018-07-17T00:26:19.897Z,7.47
2018-07-17T00:28:49.104Z,8.27
2018-07-17T00:31:18.348Z,8.50
2018-07-17T00:33:47.702Z,8.07
2018-07-17T00:36:16.478Z,8.40
2018-07-17T00:38:45.592Z,8.83
2018-07-17T00:41:15.615Z,8.77
2018-07-17T00:43:44.824Z,8.17
2018-07-17T00:46:13.956Z,8.57
2018-07-17T00:48:43.202Z,7.43
2018-07-17T00:51:13.256Z,8.33
2018-07-17T00:53:42.405Z,8.03
2018-07-17T00:56:11.561Z,8.93
2018-07-17T00:58:40.742Z,8.20
2018-07-17T01:01:09.245Z,8.13
2018-07-17T01:03:43.931Z,9.03
2018-07-17T01:06:18.492Z,9.13
2018-07-17T01:08:53.004Z,8.83
2018-07-17T01:11:27.379Z,8.30
2018-07-17T01:14:00.333Z,8.07
2018-07-17T01:16:29.603Z,9.23
2018-07-17T01:18:58.774Z,9.00
2018-07-17T01:21:28.221Z,9.80
2018-07-17T01:23:57.377Z,8.77
2018-07-17T01:26:26.621Z,9.33
2018-07-17T01:28:55.756Z,8.77
2018-07-17T01:31:24.931Z,8.97
2018-07-17T01:33:54.174Z,8.47
2018-07-17T01:36:23.437Z,10.10
2018-07-17T01:38:52.567Z,9.37
2018-07-17T01:41:21.766Z,10.27
2018-07-17T01:43:50.835Z,9.37
2018-07-17T01:46:20.105Z,10.97
2018-07-17T01:48:49.271Z,10.70
2018-07-17T01:51:18.551Z,10.63
2018-07-17T01:53:47.759Z,10.63
2018-07-17T01:56:16.922Z,10.60
2018-07-17T01:58:46.151Z,11.10
2018-07-17T02:01:15.038Z,11.40
2018-07-17T02:03:44.094Z,12.20
2018-07-17T02:06:13.221Z,11.63
2018-07-17T02:08:42.415Z,9.87
2018-07-17T02:11:11.644Z,10.40
2018-07-17T02:13:40.843Z,10.30
2018-07-17T02:16:10.028Z,11.13
2018-07-17T02:18:39.347Z,10.57
2018-07-17T02:21:08.449Z,10.47
2018-07-17T02:23:37.684Z,10.93
2018-07-17T02:26:06.900Z,11.90
2018-07-17T02:28:36.749Z,11.50
2018-07-17T02:31:05.997Z,10.77
2018-07-17T02:33:35.954Z,11.37
2018-07-17T02:36:05.263Z,12.33
2018-07-17T02:38:34.408Z,11.20
2018-07-17T02:41:03.631Z,10.40
2018-07-17T02:43:32.873Z,10.37
2018-07-17T02:46:01.997Z,9.53
2018-07-17T02:48:31.900Z,9.13
2018-07-17T02:51:01.179Z,8.90
2018-07-17T02:53:30.304Z,8.90
2018-07-17T02:55:59.521Z,8.97
2018-07-17T02:58:28.590Z,9.73
2018-07-17T03:00:57.655Z,8.50
2018-07-17T03:03:26.886Z,7.60
2018-07-17T03:05:56.080Z,8.53
2018-07-17T03:08:25.862Z,9.20
2018-07-17T03:10:55.120Z,10.63
2018-07-17T03:13:24.243Z,10.17
2018-07-17T03:15:53.358Z,10.30
2018-07-17T03:18:22.246Z,10.20
2018-07-17T03:20:51.359Z,9.90
2018-07-17T03:23:21.366Z,10.07
2018-07-17T03:25:50.567Z,9.60
2018-07-17T03:28:20.030Z,9.17
2018-07-17T03:30:49.355Z,9.67
2018-07-17T03:33:18.479Z,10.60
2018-07-17T03:35:47.701Z,10.20
2018-07-17T03:38:16.975Z,10.83
2018-07-17T03:40:45.891Z,10.60
2018-07-17T03:43:15.170Z,10.27
2018-07-17T03:45:44.455Z,8.97
2018-07-17T03:48:13.635Z,8.80
2018-07-17T03:50:43.189Z,10.80
2018-07-17T03:53:12.387Z,8.97
2018-07-17T03:55:41.537Z,9.53
2018-07-17T03:58:10.835Z,10.63
2018-07-17T04:00:40.052Z,11.27
2018-07-17T04:03:09.199Z,10.10
2018-07-17T04:05:38.365Z,10.20
2018-07-17T04:08:07.627Z,10.50
2018-07-17T04:10:36.966Z,9.37
2018-07-17T04:13:06.346Z,8.03
2018-07-17T04:15:35.630Z,8.20
2018-07-17T04:18:04.923Z,7.80
2018-07-17T04:20:34.157Z,10.53
2018-07-17T04:23:03.386Z,11.23
2018-07-17T04:25:32.556Z,10.37
2018-07-17T04:28:01.790Z,11.27
2018-07-17T04:30:31.076Z,10.23
2018-07-17T04:33:00.273Z,10.53
2018-07-17T04:35:29.500Z,10.70
2018-07-17T04:37:58.761Z,11.87
2018-07-17T04:40:27.951Z,11.20
2018-07-17T04:42:57.115Z,11.93
2018-07-17T04:45:26.364Z,12.47
2018-07-17T04:47:55.490Z,11.43
2018-07-17T04:50:25.065Z,11.53
2018-07-17T04:52:54.237Z,11.63
2018-07-17T04:55:23.488Z,12.53
2018-07-17T04:57:53.102Z,11.53
2018-07-17T05:00:22.269Z,10.87
2018-07-17T05:02:51.570Z,10.40
2018-07-17T05:05:20.767Z,10.77
2018-07-17T05:07:49.946Z,9.93
2018-07-17T05:10:19.283Z,10.17
2018-07-17T05:12:48.610Z,10.30
2018-07-17T05:15:17.756Z,9.73
2018-07-17T05:17:46.942Z,10.27
2018-07-17T05:20:16.196Z,10.50
2018-07-17T05:22:45.416Z,9.90
2018-07-17T05:25:14.536Z,10.93
2018-07-17T05:27:43.733Z,10.20
2018-07-17T05:30:12.581Z,10.50
2018-07-17T05:32:42.421Z,10.83
2018-07-17T05:35:11.721Z,11.10
2018-07-17T05:37:40.930Z,11.23
2018-07-17T05:40:10.163Z,11.27
2018-07-17T05:42:46.151Z,11.60
2018-07-17T05:45:15.275Z,11.57
2018-07-17T05:47:44.522Z,12.37
2018-07-17T05:50:13.625Z,11.83
2018-07-17T05:52:42.793Z,13.43
2018-07-17T05:55:12.743Z,11.13
2018-07-17T05:57:41.767Z,10.90
2018-07-17T06:00:11.177Z,10.37
2018-07-17T06:02:40.413Z,9.27
2018-07-17T06:05:09.605Z,9.53
2018-07-17T06:07:38.935Z,9.60
2018-07-17T06:10:08.285Z,9.30
2018-07-17T06:12:37.604Z,9.40
2018-07-17T06:15:07.153Z,8.13
2018-07-17T06:17:36.268Z,8.37
2018-07-17T06:20:07.205Z,9.10
2018-07-17T06:22:36.332Z,8.93
2018-07-17T06:25:06.715Z,8.97
2018-07-17T06:27:35.869Z,9.07
2018-07-17T06:30:06.020Z,9.13
2018-07-17T06:32:35.256Z,9.07
2018-07-17T06:35:04.435Z,8.73
2018-07-17T06:37:33.781Z,9.60
2018-07-17T06:40:12.634Z,8.67
2018-07-17T06:42:41.861Z,8.83
2018-07-17T06:45:11.739Z,8.70
2018-07-17T06:47:41.520Z,8.33
2018-07-17T06:50:10.663Z,8.20
2018-07-17T06:52:39.725Z,8.30
2018-07-17T06:55:09.005Z,8.18
2018-07-17T06:57:38.151Z,8.25
2018-07-17T07:00:07.690Z,7.70
2018-07-17T07:02:36.955Z,7.90
2018-07-17T07:05:06.125Z,7.72
2018-07-17T07:07:35.295Z,8.40
2018-07-17T07:10:04.470Z,7.92
2018-07-17T07:12:33.652Z,7.50
2018-07-17T07:15:02.830Z,7.87
2018-07-17T07:17:32.040Z,7.28
2018-07-17T07:20:01.218Z,6.10
2018-07-17T07:22:30.453Z,7.10
2018-07-17T07:24:59.743Z,6.90
2018-07-17T07:27:28.840Z,6.03
2018-07-17T07:29:58.045Z,6.40
2018-07-17T07:32:28.573Z,6.37
2018-07-17T07:34:57.645Z,5.83
2018-07-17T07:37:26.890Z,6.40
2018-07-17T07:39:55.946Z,6.22
2018-07-17T07:42:25.761Z,6.35
2018-07-17T07:44:55.638Z,6.47
2018-07-17T07:47:25.015Z,6.60
2018-07-17T07:49:53.897Z,6.22
2018-07-17T07:52:23.543Z,6.37
2018-07-17T07:54:52.700Z,5.60
2018-07-17T07:57:21.912Z,5.87
2018-07-17T07:59:51.218Z,5.55
2018-07-17T08:02:20.285Z,5.20
2018-07-17T08:04:49.445Z,5.22
2018-07-17T08:07:18.683Z,5.22
2018-07-17T08:09:47.955Z,4.85
2018-07-17T08:12:17.278Z,5.62
2018-07-17T08:14:46.500Z,5.22
2018-07-17T08:17:15.576Z,4.30
2018-07-17T08:19:44.841Z,4.97
2018-07-17T08:22:14.800Z,5.87
2018-07-17T08:24:43.966Z,5.35
2018-07-17T08:27:13.095Z,5.75
2018-07-17T08:29:42.390Z,6.00
2018-07-17T08:32:11.635Z,5.72
2018-07-17T08:34:40.815Z,4.50
2018-07-17T08:37:10.014Z,5.87
2018-07-17T08:39:39.241Z,5.03
2018-07-17T08:42:08.571Z,4.67
2018-07-17T08:44:37.770Z,4.67
2018-07-17T08:47:06.983Z,4.53
2018-07-17T08:49:35.832Z,4.72
2018-07-17T08:52:05.083Z,4.10
2018-07-17T08:54:35.198Z,4.17
2018-07-17T08:57:04.381Z,3.87
2018-07-17T08:59:33.592Z,4.10
2018-07-17T09:02:02.406Z,4.00
2018-07-17T09:04:31.552Z,3.72
2018-07-17T09:07:00.681Z,3.37
2018-07-17T09:09:29.962Z,3.25
2018-07-17T09:11:59.237Z,3.83
2018-07-17T09:14:28.338Z,3.62
2018-07-17T09:16:57.553Z,3.20
2018-07-17T09:19:26.671Z,2.70
2018-07-17T09:21:55.906Z,3.70
2018-07-17T09:24:25.188Z,3.30
2018-07-17T09:26:54.702Z,2.80
2018-07-17T09:29:23.976Z,3.00
2018-07-17T09:31:53.159Z,3.37
2018-07-17T09:34:22.292Z,3.52
2018-07-17T09:36:51.423Z,2.95
2018-07-17T09:39:20.696Z,3.08
2018-07-17T09:41:49.947Z,2.87
2018-07-17T09:44:19.245Z,3.37
2018-07-17T09:46:48.293Z,3.33
2018-07-17T09:49:17.564Z,3.47
2018-07-17T09:51:46.683Z,3.25
2018-07-17T09:54:16.459Z,3.42
2018-07-17T09:56:45.543Z,3.58
2018-07-17T09:59:14.734Z,3.30
2018-07-17T10:01:49.204Z,2.90
2018-07-17T10:04:18.361Z,3.37
2018-07-17T10:06:47.677Z,3.40
2018-07-17T10:09:16.891Z,3.55
2018-07-17T10:11:45.983Z,3.80
2018-07-17T10:14:15.485Z,3.22
2018-07-17T10:16:44.728Z,3.95
2018-07-17T10:19:14.000Z,3.00
2018-07-17T10:21:43.320Z,3.95
2018-07-17T10:24:12.442Z,3.70
2018-07-17T10:26:41.789Z,3.37
2018-07-17T10:29:10.948Z,4.00
2018-07-17T10:31:40.194Z,3.70
2018-07-17T10:34:09.427Z,3.60
2018-07-17T10:36:38.684Z,3.55
2018-07-17T10:39:09.773Z,3.17
2018-07-17T10:41:39.152Z,3.12
2018-07-17T10:44:09.130Z,2.80
2018-07-17T10:46:39.073Z,3.20
2018-07-17T10:49:08.364Z,3.10
2018-07-17T10:51:37.488Z,3.35
2018-07-17T10:54:06.664Z,3.05
2018-07-17T10:56:36.011Z,3.52
2018-07-17T10:59:05.627Z,4.00
2018-07-17T11:01:35.017Z,4.20
2018-07-17T11:04:04.296Z,3.58
2018-07-17T11:06:33.419Z,4.55
2018-07-17T11:09:03.604Z,3.87
2018-07-17T11:11:32.741Z,4.00
2018-07-17T11:14:01.820Z,4.00
2018-07-17T11:16:31.299Z,3.80
2018-07-17T11:19:00.781Z,2.90
2018-07-17T11:21:30.139Z,2.77
2018-07-17T11:23:59.394Z,3.50
2018-07-17T11:26:28.644Z,2.95
2018-07-17T11:28:57.812Z,2.80
2018-07-17T11:31:27.106Z,2.77
2018-07-17T11:33:56.268Z,3.87
2018-07-17T11:36:25.396Z,2.80
2018-07-17T11:38:54.553Z,3.10
2018-07-17T11:41:23.712Z,3.10
2018-07-17T11:43:53.576Z,3.17
2018-07-17T11:46:22.781Z,2.75
2018-07-17T11:48:51.943Z,3.00
2018-07-17T11:51:21.188Z,2.50
2018-07-17T11:53:50.297Z,2.50
2018-07-17T11:56:19.466Z,2.60
2018-07-17T11:58:48.753Z,2.60
2018-07-17T12:01:17.969Z,2.77
2018-07-17T12:03:47.401Z,2.50
2018-07-17T12:06:16.607Z,3.42
2018-07-17T12:08:45.721Z,2.65
2018-07-17T12:11:14.910Z,2.55
2018-07-17T12:13:44.172Z,3.58
2018-07-17T12:16:13.415Z,2.80
2018-07-17T12:18:42.525Z,3.00
2018-07-17T12:21:11.847Z,3.10
2018-07-17T12:23:40.943Z,3.52
2018-07-17T12:26:10.360Z,3.62
2018-07-17T12:28:39.344Z,3.35
2018-07-17T12:31:08.579Z,4.35
2018-07-17T12:33:38.308Z,3.67
2018-07-17T12:36:08.735Z,3.85
2018-07-17T12:38:38.134Z,3.37
2018-07-17T12:41:07.605Z,3.00
2018-07-17T12:43:36.715Z,3.25
2018-07-17T12:46:05.890Z,2.55
2018-07-17T12:48:35.759Z,2.60
2018-07-17T12:51:05.579Z,2.25
2018-07-17T12:53:34.653Z,1.98
2018-07-17T12:56:03.823Z,2.02
2018-07-17T12:58:33.055Z,2.65
2018-07-17T13:01:02.259Z,2.10
2018-07-17T13:03:31.126Z,1.85
2018-07-17T13:06:00.232Z,1.90
2018-07-17T13:08:29.172Z,1.90
2018-07-17T13:10:58.227Z,2.10
2018-07-17T13:13:27.359Z,2.20
2018-07-17T13:15:56.940Z,2.25
2018-07-17T13:18:25.759Z,2.08
2018-07-17T13:20:54.768Z,2.30
2018-07-17T13:23:23.888Z,1.80
2018-07-17T13:25:53.696Z,2.45
2018-07-17T13:28:24.152Z,2.12
2018-07-17T13:30:54.548Z,2.10
2018-07-17T13:33:23.767Z,2.08
2018-07-17T13:35:52.961Z,1.90
2018-07-17T13:38:22.113Z,2.27
2018-07-17T13:40:51.497Z,3.00
2018-07-17T13:43:20.809Z,2.90
2018-07-17T13:45:50.082Z,3.75
2018-07-17T13:48:19.234Z,3.70
2018-07-17T13:50:48.381Z,3.90
2018-07-17T13:53:17.152Z,4.03
2018-07-17T13:55:46.277Z,6.28
2018-07-17T13:58:15.067Z,8.78
2018-07-17T14:00:44.208Z,6.47
2018-07-17T14:03:13.904Z,5.58
2018-07-17T14:05:43.020Z,3.92
2018-07-17T14:08:12.288Z,4.80
2018-07-17T14:10:41.560Z,4.33
2018-07-17T14:13:10.758Z,4.75
2018-07-17T14:15:39.944Z,3.60
2018-07-17T14:18:09.357Z,3.72
2018-07-17T14:20:38.591Z,3.62
2018-07-17T14:23:07.737Z,3.42
2018-07-17T14:25:36.905Z,3.65
2018-07-17T14:28:06.119Z,3.00
2018-07-17T14:30:35.244Z,3.35
2018-07-17T14:33:04.436Z,3.30
2018-07-17T14:35:33.266Z,3.60
2018-07-17T14:38:03.298Z,3.72
2018-07-17T14:40:32.549Z,3.70
2018-07-17T14:43:01.989Z,3.70
2018-07-17T14:45:31.257Z,4.20
2018-07-17T14:48:00.394Z,4.17
2018-07-17T14:50:29.755Z,4.70
2018-07-17T14:53:00.012Z,4.70
2018-07-17T14:55:29.473Z,4.50
2018-07-17T14:57:58.720Z,5.00
2018-07-17T15:00:27.945Z,4.58
2018-07-17T15:02:57.208Z,7.00
2018-07-17T15:05:26.406Z,8.25
2018-07-17T15:07:55.605Z,5.33
2018-07-17T15:10:24.816Z,5.75
2018-07-17T15:12:54.180Z,5.70
2018-07-17T15:15:23.099Z,4.70
2018-07-17T15:17:52.196Z,5.60
2018-07-17T15:20:21.710Z,6.33
2018-07-17T15:22:50.872Z,6.92
2018-07-17T15:25:19.782Z,7.67
2018-07-17T15:27:48.831Z,7.72
2018-07-17T15:30:18.022Z,6.53
2018-07-17T15:32:47.558Z,6.90
2018-07-17T15:35:16.717Z,7.87
2018-07-17T15:37:45.883Z,6.80
2018-07-17T15:40:15.159Z,6.03
2018-07-17T15:42:44.357Z,7.22
2018-07-17T15:45:13.558Z,6.72
2018-07-17T15:47:42.691Z,6.08
2018-07-17T15:50:11.900Z,7.42
2018-07-17T15:52:41.023Z,8.18
2018-07-17T15:55:10.162Z,8.37
2018-07-17T15:57:39.351Z,6.73
2018-07-17T16:00:08.309Z,7.50
2018-07-17T16:02:37.342Z,6.97
2018-07-17T16:05:06.704Z,6.97
2018-07-17T16:07:36.038Z,7.10
2018-07-17T16:10:05.588Z,7.17
2018-07-17T16:12:34.757Z,7.57
2018-07-17T16:15:04.001Z,6.83
2018-07-17T16:17:33.150Z,7.67
2018-07-17T16:20:03.144Z,8.27
2018-07-17T16:22:32.327Z,7.60
2018-07-17T16:25:01.475Z,8.43
2018-07-17T16:27:30.732Z,8.50
2018-07-17T16:29:59.931Z,8.30
2018-07-17T16:32:29.133Z,8.47
2018-07-17T16:34:58.289Z,9.23
2018-07-17T16:37:27.636Z,9.63
2018-07-17T16:39:56.537Z,11.10
2018-07-17T16:42:25.740Z,9.70
2018-07-17T16:44:54.988Z,8.87
2018-07-17T16:47:24.184Z,9.27
2018-07-17T16:49:55.198Z,10.03
2018-07-17T16:52:24.062Z,9.17
2018-07-17T16:54:53.337Z,10.23
2018-07-17T16:57:32.005Z,9.73
2018-07-17T17:00:01.338Z,10.33
2018-07-17T17:02:30.636Z,10.97
2018-07-17T17:04:59.739Z,10.37
2018-07-17T17:07:28.989Z,9.93
2018-07-17T17:09:58.199Z,12.10
2018-07-17T17:12:27.390Z,10.57
2018-07-17T17:14:56.569Z,10.53
2018-07-17T17:17:25.762Z,11.47
2018-07-17T17:19:54.915Z,10.90
2018-07-17T17:22:24.038Z,10.37
2018-07-17T17:24:53.514Z,10.70
2018-07-17T17:27:22.814Z,10.27
2018-07-17T17:29:51.989Z,11.03
2018-07-17T17:32:20.815Z,9.87
2018-07-17T17:34:50.769Z,10.33
2018-07-17T17:37:19.991Z,9.03
2018-07-17T17:39:48.838Z,9.17
2018-07-17T17:42:17.877Z,8.87
2018-07-17T17:44:47.053Z,8.20
2018-07-17T17:47:16.172Z,8.43
2018-07-17T17:49:46.296Z,7.77
2018-07-17T17:52:15.150Z,7.27
2018-07-17T17:54:44.399Z,7.63
2018-07-17T17:57:13.581Z,7.70
2018-07-17T17:59:42.681Z,7.43
2018-07-17T18:02:12.211Z,7.23
2018-07-17T18:04:41.404Z,6.73
2018-07-17T18:07:10.681Z,7.43
2018-07-17T18:09:39.828Z,7.77
2018-07-17T18:12:09.220Z,7.17
2018-07-17T18:14:38.410Z,7.00
2018-07-17T18:17:07.812Z,6.10
2018-07-17T18:19:36.975Z,6.50
2018-07-17T18:22:06.974Z,6.10
2018-07-17T18:24:36.081Z,5.83
2018-07-17T18:27:05.298Z,5.60
2018-07-17T18:29:34.421Z,5.33
2018-07-17T18:32:03.485Z,4.70
2018-07-17T18:34:32.632Z,5.43
2018-07-17T18:37:01.713Z,4.40
2018-07-17T18:39:30.905Z,4.53
2018-07-17T18:42:00.019Z,4.80
2018-07-17T18:44:29.129Z,4.70
2018-07-17T18:46:58.236Z,4.40
2018-07-17T18:49:27.363Z,4.73
2018-07-17T18:51:56.500Z,4.43
2018-07-17T18:54:25.579Z,4.97
2018-07-17T18:56:54.731Z,5.37
2018-07-17T18:59:23.927Z,5.47
2018-07-17T19:01:53.012Z,5.03
2018-07-17T19:04:22.134Z,5.07
2018-07-17T19:06:51.219Z,5.17
2018-07-17T19:09:20.393Z,5.47
2018-07-17T19:11:49.885Z,4.80
2018-07-17T19:14:18.983Z,5.43
2018-07-17T19:16:48.224Z,5.03
2018-07-17T19:19:17.344Z,5.27
2018-07-17T19:21:47.116Z,4.97
2018-07-17T19:24:16.247Z,5.07
2018-07-17T19:26:45.384Z,5.10
2018-07-17T19:29:14.786Z,6.80
2018-07-17T19:31:43.834Z,5.37
2018-07-17T19:34:12.950Z,5.97
2018-07-17T19:36:43.240Z,5.40
2018-07-17T19:39:13.192Z,5.90
2018-07-17T19:41:42.626Z,6.10
2018-07-17T19:44:11.995Z,5.70
2018-07-17T19:46:41.110Z,6.37
2018-07-17T19:49:10.488Z,5.87
2018-07-17T19:51:39.582Z,5.77
2018-07-17T19:54:08.782Z,6.53
2018-07-17T19:56:37.978Z,6.50
2018-07-17T19:59:07.234Z,6.60
2018-07-17T20:01:36.565Z,7.77
2018-07-17T20:04:06.107Z,6.93
2018-07-17T20:06:35.181Z,7.60
2018-07-17T20:09:06.745Z,7.23
2018-07-17T20:11:36.028Z,7.40
2018-07-17T20:14:05.189Z,7.37
2018-07-17T20:16:34.404Z,8.07
2018-07-17T20:19:03.752Z,7.83
2018-07-17T20:21:32.912Z,7.40
2018-07-17T20:24:02.167Z,8.40
2018-07-17T20:26:31.688Z,8.43
2018-07-17T20:29:01.288Z,8.23
2018-07-17T20:31:30.631Z,8.33
2018-07-17T20:34:01.732Z,8.47
2018-07-17T20:36:31.065Z,8.90
2018-07-17T20:39:09.336Z,9.37
2018-07-17T20:41:38.813Z,9.77
2018-07-17T20:44:08.061Z,9.93
2018-07-17T20:46:37.286Z,10.17
2018-07-17T20:49:06.606Z,9.33
2018-07-17T20:51:35.701Z,10.57
2018-07-17T20:54:04.841Z,10.07
2018-07-17T20:56:34.019Z,10.00
2018-07-17T20:59:03.215Z,10.60
2018-07-17T21:01:32.378Z,10.23
2018-07-17T21:04:01.737Z,10.40
2018-07-17T21:06:30.909Z,9.77
2018-07-17T21:09:00.612Z,10.60
2018-07-17T21:11:30.539Z,10.37
2018-07-17T21:13:59.730Z,11.87
2018-07-17T21:16:28.946Z,12.10
2018-07-17T21:18:58.095Z,13.23
2018-07-17T21:21:27.281Z,14.00
2018-07-17T21:23:56.462Z,13.70
2018-07-17T21:26:25.653Z,13.90
2018-07-17T21:28:55.035Z,13.67
2018-07-17T21:31:24.242Z,13.67
2018-07-17T21:33:53.409Z,14.70
2018-07-17T21:36:22.640Z,13.70
2018-07-17T21:38:51.835Z,14.67
2018-07-17T21:41:21.037Z,13.63
2018-07-17T21:43:50.285Z,15.43
2018-07-17T21:46:19.475Z,14.90
2018-07-17T21:48:48.809Z,15.07
2018-07-17T21:51:18.022Z,15.67
2018-07-17T21:53:47.221Z,15.87
2018-07-17T21:56:16.416Z,16.77
2018-07-17T21:58:45.510Z,16.27
2018-07-17T22:01:14.625Z,15.47
2018-07-17T22:03:43.704Z,16.40
2018-07-17T22:06:12.929Z,14.73
2018-07-17T22:08:42.561Z,16.17
2018-07-17T22:11:11.777Z,15.60
2018-07-17T22:13:41.050Z,14.13
2018-07-17T22:16:10.276Z,15.13
2018-07-17T22:18:40.524Z,15.80
2018-07-17T22:21:10.672Z,14.87
2018-07-17T22:23:39.853Z,14.63
2018-07-17T22:26:08.991Z,14.53
2018-07-17T22:28:38.184Z,14.80
2018-07-17T22:31:07.309Z,14.40
2018-07-17T22:33:36.524Z,14.73
2018-07-17T22:36:05.775Z,15.30
2018-07-17T22:38:34.939Z,14.77
2018-07-17T22:41:04.327Z,14.53
2018-07-17T22:43:33.491Z,14.03
2018-07-17T22:46:02.819Z,13.97
2018-07-17T22:48:32.071Z,13.17
2018-07-17T22:51:01.174Z,13.47
2018-07-17T22:53:30.447Z,13.50
2018-07-17T22:55:59.743Z,12.87
2018-07-17T22:58:28.965Z,13.60
2018-07-17T23:00:58.340Z,12.83
2018-07-17T23:03:27.527Z,13.10
2018-07-17T23:05:56.670Z,13.07
2018-07-17T23:08:25.849Z,12.97
2018-07-17T23:10:55.876Z,14.07
2018-07-17T23:13:25.061Z,13.67
2018-07-17T23:15:54.404Z,13.67
2018-07-17T23:18:23.608Z,13.27
2018-07-17T23:20:52.840Z,12.57
2018-07-17T23:23:22.108Z,12.10
2018-07-17T23:25:51.297Z,11.77
2018-07-17T23:28:20.644Z,11.63
2018-07-17T23:30:49.856Z,12.50
2018-07-17T23:33:18.999Z,10.83
2018-07-17T23:35:48.150Z,11.30
2018-07-17T23:38:17.081Z,11.30
2018-07-17T23:40:46.409Z,10.93
2018-07-17T23:43:15.533Z,10.73
2018-07-17T23:45:45.104Z,10.83
2018-07-17T23:48:14.356Z,11.03
2018-07-17T23:50:43.576Z,10.60
2018-07-17T23:53:12.797Z,12.20
2018-07-17T23:55:41.993Z,11.77
2018-07-17T23:58:11.243Z,11.50
